Aérodrome :
LOGIN :

S'inscrire | Disclaimer

   EN    FR    IT 

 










Légende :    VFR   VFR Marginal   IFR   IFR Intensif   IFR Très Intensif
Visi : 
Plafond : 
>= 8 km
>= 3000ft
5 à 8 km
1000 à 3000 ft
1500m à 5 km
500 à 1000 ft
800 à 1500m
200 à 500 ft
< 800m
< 200 ft
Symboles :   Orages  Brouillard  Fortes neiges  Fortes précipitations  Vent > 20 kt
SIGMETs :   Divers  Orages  Givrage  Turbulence  Onde Orograph.  Cendres Volcan.







- Altitude de l'aérodrome : 423 ft
- Code IATA : PIS
- Voir les cartes d'approche


LFBI - Poitiers

DERNIER METAR :
  • 240430Z AUTO 36004KT 3000 BR NSC 04/03 Q1027 TEMPO 0800 FG VV///

METARs EXPIRÉS :
  • 240400Z AUTO 34004KT 2800 BR NSC 04/04 Q1027 TEMPO 0800 FG VV///
  • 240330Z AUTO 34004KT 3000 BR NSC 04/03 Q1027 TEMPO 0800 FG VV///
  • 240300Z AUTO 35004KT 3200 BR NSC 04/04 Q1026 TEMPO 0800 FG VV///
  • 240230Z AUTO 35004KT 3500 BR NSC 04/04 Q1026 TEMPO 0800 FG VV///
  • 240200Z AUTO 35002KT 3600 BR NSC 04/03 Q1026 TEMPO 0800 FG VV///

TAF TAF LFBI
Valide du 24 à 00h jusqu'au 25 à 00h UTC


232300Z 2400/2424 VRB02KT CAVOK
TEMPO 2400/2408 3000 BR
PROB30
TEMPO 2400/2408 0800 FG VV///
Pas de NOTAMs connus pour ce terrain.



MET'MAP, la Météo Aéronautique d'un coup d'oeil ! - Copyright ORBIFLY Décembre 2007 - Disclaimer

ORBIFLY MET'MAP TEAM :

Programmation & Développement : Alexandra Zaïnal
Conception & Développement : Baudouin d'Aumeries
Co-Programmation & Développement : Marc-Olivier Méhu
Soutien technique & logistique : Manuel Goepfert

Contact : metmap@orbifly.com




SOURCES & CREDITS :

   NOAA